メインページ
METAR-TAF:

METAR-TAF

空港 :

シドニー国際空港

シドニー, オーストラリア

緯度: 33-57S, 経度: 151-11E, 海抜: 6m

現時点の気象観測

当レポートは16分前の10:00(UTC)に作成
西/北西の風 13kt
気温 13°C
湿度 47%
気圧 1012 hPa
視程10km以上
1,500メートル以下は雲なし、積乱雲なし

METAR: YSSY 181000Z 29013KT CAVOK 13/02 Q1012 FM1000 MOD/SEV TURB BLW 5000FT

時間: 20:16 (10:16 UTC)

予報

当レポートは48分前の09:28(UTC)に作成
予報は18日の 09時(UTC)から 19日の 12時(UTC)まで有効
西の風 12kt、最大22ktの突風を伴う
視程10km以上
1,500メートル以下は雲なし、積乱雲なし
18日の 2300時(UTC)から
西/南西の風 25kt、最大35ktの突風を伴う
視程10km以上
1,500メートル以下は雲なし、積乱雲なし
19日の 0900時(UTC)から
南西の風 18kt、最大28ktの突風を伴う
視程10km以上
高度4500ftの雲は散在している
高度8000ftの千切れ雲あり

TAF: YSSY 180928Z 1809/1912 28012G22KT CAVOK FM182300 25025G35KT CAVOK FM190900 22018G28KT 9999 SCT045 BKN080

4,000以上の空港の気象観測と天気予報(METAR報とTAF報)

利用可能な観測所は地図上に黄色い丸と赤い丸で示す。

丸の上にカーソルを重ねると観測所名を参照できる。

次にクリックすると気象観測と天気予報を参照できる。

マップの切り替え:黒色「×」印の緑ボタンをクリックして拡大、「-」印の緑ボタンをクリックして縮小、緑色の三角印をクリックして隣りの地図に切り替え


METAR-TAF: